Time;durP1;ratioP1;P1;durP2;ratioP2;P2;SDS_P1;SDS_P2;PMS_P1;PMS_P2;Temp;Humidity;BMP_temperature;BMP_pressure;BME280_temperature;BME280_humidity;BME280_pressure;Samples;Min_cycle;Max_cycle;Signal;HPM_P1;HPM_P2
2023/06/01 00:00:56;;;;;;;18.88;12.45;;;;;;;29.58;69.31;100591.50;5109849;27;65689;-43
2023/06/01 00:03:29;;;;;;;16.10;10.80;;;;;;;29.83;69.33;100637.53;5116952;27;69887;-44
2023/06/01 00:06:00;;;;;;;18.25;10.95;;;;;;;29.86;69.49;100638.16;5102939;27;65759;-47
2023/06/01 00:08:31;;;;;;;18.65;10.35;;;;;;;29.94;70.51;100654.09;5112212;27;69862;-45
2023/06/01 00:11:01;;;;;;;11.07;9.82;;;;;;;30.00;70.54;100637.00;5120312;27;66972;-46
2023/06/01 00:13:32;;;;;;;14.00;9.73;;;;;;;29.93;70.83;100630.81;5112026;27;70896;-45
2023/06/01 00:16:03;;;;;;;13.95;10.02;;;;;;;29.92;76.31;100629.16;5105935;27;65784;-43
2023/06/01 00:18:34;;;;;;;16.53;10.20;;;;;;;29.82;76.53;100606.13;5110609;27;70068;-46
2023/06/01 00:21:04;;;;;;;17.17;10.70;;;;;;;30.00;74.69;100628.88;5109741;27;66223;-45
2023/06/01 00:23:35;;;;;;;16.50;11.68;;;;;;;30.10;76.49;100648.16;5105686;27;69148;-44
2023/06/01 00:26:06;;;;;;;18.30;10.77;;;;;;;29.88;75.54;100600.91;5106825;27;66376;-43
2023/06/01 00:28:37;;;;;;;19.70;10.53;;;;;;;30.07;76.89;100632.38;5110526;27;70587;-43
2023/06/01 00:31:08;;;;;;;13.90;10.02;;;;;;;30.26;76.90;100661.16;5108895;27;65495;-46
2023/06/01 00:33:39;;;;;;;10.45;8.70;;;;;;;30.34;74.48;100662.78;5110583;27;70516;-44
2023/06/01 00:36:09;;;;;;;9.50;8.23;;;;;;;30.36;73.27;100666.06;5109732;27;66363;-44
2023/06/01 00:38:41;;;;;;;9.50;8.63;;;;;;;30.40;72.40;100663.75;5104993;27;70174;-43
2023/06/01 00:41:12;;;;;;;10.95;7.95;;;;;;;30.09;71.76;100613.19;5103265;27;66395;-43
2023/06/01 00:43:43;;;;;;;9.73;7.83;;;;;;;30.27;71.39;100649.28;5108797;27;70084;-43
2023/06/01 00:46:14;;;;;;;9.32;7.22;;;;;;;30.48;71.28;100671.59;5104008;27;66876;-43
2023/06/01 00:48:45;;;;;;;8.15;7.20;;;;;;;30.48;70.79;100677.00;5106574;27;70058;-42
2023/06/01 00:51:16;;;;;;;8.15;7.40;;;;;;;30.48;70.92;100671.59;5112295;27;67466;-42
2023/06/01 00:53:47;;;;;;;9.43;7.40;;;;;;;30.53;70.43;100684.44;5104953;27;70787;-43
2023/06/01 00:56:18;;;;;;;7.82;7.22;;;;;;;30.44;70.50;100679.31;5104981;27;67154;-43
2023/06/01 00:58:49;;;;;;;7.73;6.40;;;;;;;30.56;70.18;100673.16;5106653;27;70417;-43
2023/06/01 01:01:22;;;;;;;7.03;6.53;;;;;;;30.19;70.22;100622.47;5106932;27;65608;-43
2023/06/01 01:03:57;;;;;;;7.10;6.60;;;;;;;30.58;69.75;100671.06;5104996;27;70258;-42
2023/06/01 01:06:48;;;;;;;7.72;7.10;;;;;;;29.90;69.29;100574.47;5110312;27;66286;-43
2023/06/01 01:10:00;;;;;;;8.60;6.88;;;;;;;30.41;69.40;100651.88;5109547;27;68739;-44
2023/06/01 01:12:55;;;;;;;7.57;6.88;;;;;;;30.73;69.47;100702.16;5039378;28;43802;-42
2023/06/01 01:15:37;;;;;;;6.88;6.28;;;;;;;29.97;69.19;100581.47;5070268;27;70121;-44
2023/06/01 01:18:17;;;;;;;6.95;6.35;;;;;;;30.76;69.39;100710.88;5110522;27;66415;-43
2023/06/01 01:20:57;;;;;;;12.93;6.45;;;;;;;30.75;68.73;100693.81;5103901;27;70564;-42
2023/06/01 01:23:51;;;;;;;7.22;6.60;;;;;;;30.78;69.02;100715.00;5105612;27;65799;-43
2023/06/01 01:27:14;;;;;;;6.90;6.40;;;;;;;30.68;69.29;100695.75;5109479;27;70492;-43
2023/06/01 01:29:47;;;;;;;6.53;5.90;;;;;;;30.04;68.74;100574.13;5047347;28;66585;-43
2023/06/01 01:32:17;;;;;;;;;;;;;;;30.59;70.20;100708.75;5105745;27;70020;-43
2023/06/01 01:34:48;;;;;;;6.57;6.07;;;;;;;29.44;68.49;100476.47;5110098;27;66561;-43
2023/06/01 01:37:21;;;;;;;;;;;;;;;30.62;70.04;100705.59;5104928;27;70579;-42
2023/06/01 01:39:52;;;;;;;7.53;6.07;;;;;;;30.91;68.71;100719.50;5114854;27;66852;-42
2023/06/01 01:42:23;;;;;;;9.57;5.45;;;;;;;30.97;68.33;100718.59;5103863;27;71312;-43
2023/06/01 01:44:53;;;;;;;9.07;5.72;;;;;;;30.91;68.16;100708.69;5114274;27;66481;-44
2023/06/01 01:48:05;;;;;;;6.22;5.68;;;;;;;30.90;69.27;100715.16;5110153;27;68917;-42
2023/06/01 01:50:50;;;;;;;7.47;5.68;;;;;;;31.03;68.59;100735.84;5087131;27;66471;-41
2023/06/01 01:53:25;;;;;;;5.53;5.13;;;;;;;31.10;68.33;100729.31;5105924;27;70383;-42
2023/06/01 01:55:57;;;;;;;6.25;5.65;;;;;;;30.12;68.04;100547.88;5110405;27;66614;-44
2023/06/01 01:58:29;;;;;;;5.80;5.20;;;;;;;31.03;68.08;100690.59;5131245;27;70671;-44
2023/06/01 02:01:01;;;;;;;5.80;5.10;;;;;;;31.15;67.83;100702.38;5095231;27;66397;-45
2023/06/01 02:03:32;;;;;;;5.47;5.07;;;;;;;31.20;68.14;100695.44;5106604;27;71627;-44
2023/06/01 02:06:03;;;;;;;6.57;5.20;;;;;;;31.22;67.78;100696.84;5109794;27;66078;-43
2023/06/01 02:08:34;;;;;;;5.97;5.13;;;;;;;31.12;67.83;100678.44;5114131;27;70549;-43
2023/06/01 02:11:05;;;;;;;5.35;4.95;;;;;;;31.17;67.77;100675.03;5108527;27;66096;-44
2023/06/01 02:13:35;;;;;;;6.35;4.95;;;;;;;31.30;67.56;100693.00;5102285;27;70665;-43
2023/06/01 02:16:06;;;;;;;5.45;4.88;;;;;;;31.28;67.96;100679.69;5106906;27;66437;-42
2023/06/01 02:18:39;;;;;;;5.53;5.00;;;;;;;31.33;68.09;100689.84;5102680;27;70004;-44
2023/06/01 02:21:09;;;;;;;5.00;4.50;;;;;;;31.38;67.75;100681.91;5105336;27;65653;-43
2023/06/01 02:23:41;;;;;;;4.38;3.97;;;;;;;31.41;67.00;100684.16;5101033;27;70107;-44
2023/06/01 02:26:12;;;;;;;4.75;4.40;;;;;;;31.36;67.09;100673.16;5105114;27;65913;-44
2023/06/01 02:28:44;;;;;;;4.68;4.22;;;;;;;31.34;67.24;100653.53;5111682;27;69974;-43
2023/06/01 02:31:14;;;;;;;4.95;4.18;;;;;;;31.28;67.11;100641.75;5110883;27;66785;-44
2023/06/01 02:33:45;;;;;;;4.18;3.88;;;;;;;31.53;67.17;100676.88;5105676;27;68752;-42
2023/06/01 02:36:16;;;;;;;4.60;4.20;;;;;;;31.55;67.01;100677.47;5108470;27;65706;-43
2023/06/01 02:38:47;;;;;;;4.40;4.07;;;;;;;31.55;66.89;100671.25;5105106;27;69179;-42
2023/06/01 02:41:18;;;;;;;4.32;4.00;;;;;;;31.60;66.83;100680.34;5115459;27;66026;-43
2023/06/01 02:43:50;;;;;;;5.82;4.78;;;;;;;31.62;66.84;100674.66;5121943;27;69595;-43
2023/06/01 02:46:21;;;;;;;4.70;4.30;;;;;;;31.65;66.61;100667.97;5108091;27;66561;-43
2023/06/01 02:48:52;;;;;;;4.35;4.05;;;;;;;31.67;66.31;100668.56;5106577;27;69552;-44
2023/06/01 02:51:23;;;;;;;4.82;4.30;;;;;;;31.15;66.53;100575.03;5106287;27;65416;-43
2023/06/01 02:54:04;;;;;;;4.57;4.28;;;;;;;31.77;66.55;100674.25;5105015;27;70376;-44
2023/06/01 02:56:35;;;;;;;4.70;4.30;;;;;;;31.81;66.59;100672.72;5110998;27;66470;-43
2023/06/01 02:59:15;;;;;;;4.47;4.07;;;;;;;31.79;66.00;100647.75;5115098;27;70770;-43
2023/06/01 03:01:55;;;;;;;4.60;4.25;;;;;;;31.88;66.19;100657.19;5130388;27;66986;-42
2023/06/01 03:04:28;;;;;;;4.95;4.18;;;;;;;31.81;66.00;100651.03;5111142;27;70498;-44
2023/06/01 03:07:01;;;;;;;6.28;4.22;;;;;;;31.94;65.98;100650.03;5119070;27;65309;-43
2023/06/01 03:09:37;;;;;;;4.70;4.30;;;;;;;31.96;65.84;100643.31;5088572;27;69958;-43
2023/06/01 03:12:35;;;;;;;4.53;4.22;;;;;;;31.96;66.07;100640.63;5089019;27;65777;-43
2023/06/01 03:15:06;;;;;;;4.90;4.35;;;;;;;31.92;65.70;100628.56;5115357;27;69551;-43
2023/06/01 03:17:37;;;;;;;4.97;4.47;;;;;;;31.99;65.77;100628.47;5100123;27;66190;-44
2023/06/01 03:20:14;;;;;;;4.78;4.38;;;;;;;31.90;65.49;100617.09;5107905;27;70243;-44
2023/06/01 03:22:46;;;;;;;4.40;3.70;;;;;;;31.96;65.43;100620.81;5118835;27;66486;-43
2023/06/01 03:25:18;;;;;;;4.40;4.00;;;;;;;32.05;65.61;100639.19;5118459;27;70531;-43
2023/06/01 03:27:49;;;;;;;4.68;4.28;;;;;;;32.10;65.25;100634.97;5111310;27;65926;-42
2023/06/01 03:30:21;;;;;;;3.83;3.53;;;;;;;31.96;65.60;100618.09;5111761;27;71907;-44
2023/06/01 03:32:51;;;;;;;;;;;;;;;31.82;65.64;100628.28;5107667;27;65763;-44
2023/06/01 03:35:25;;;;;;;3.80;3.50;;;;;;;32.10;65.47;100629.56;5113327;27;70369;-44
2023/06/01 03:38:16;;;;;;;3.70;3.40;;;;;;;31.98;65.29;100600.53;5094512;27;66640;-44
2023/06/01 03:40:47;;;;;;;4.10;3.70;;;;;;;31.84;65.37;100561.06;5113773;27;70077;-44
2023/06/01 03:43:17;;;;;;;5.63;3.50;;;;;;;32.06;65.26;100596.59;5112866;27;66658;-45
2023/06/01 03:45:48;;;;;;;3.90;3.60;;;;;;;32.20;65.02;100608.88;5114080;27;69655;-43
2023/06/01 03:48:19;;;;;;;7.75;4.13;;;;;;;32.12;64.90;100605.69;5109632;27;66587;-43
2023/06/01 03:50:50;;;;;;;4.20;3.80;;;;;;;32.22;65.37;100616.78;5112952;27;71210;-44
2023/06/01 03:53:47;;;;;;;4.30;3.90;;;;;;;32.12;65.08;100601.09;5108008;27;67805;-43
2023/06/01 03:56:24;;;;;;;3.88;3.58;;;;;;;32.11;65.06;100571.50;5082011;27;71701;-43
2023/06/01 03:59:00;;;;;;;4.05;3.05;;;;;;;32.28;64.89;100605.00;5113242;27;66465;-43
2023/06/01 04:01:56;;;;;;;5.32;4.03;;;;;;;32.23;64.97;100577.72;5114773;27;70103;-43
2023/06/01 04:04:29;;;;;;;;;;;;;;;32.01;65.51;100597.34;5113514;27;66502;-43
2023/06/01 04:07:02;;;;;;;4.13;3.72;;;;;;;32.19;64.82;100573.84;5109822;27;70596;-45
2023/06/01 04:09:33;;;;;;;4.10;3.65;;;;;;;32.35;64.93;100594.03;5110489;27;65560;-44
2023/06/01 04:12:05;;;;;;;6.00;3.90;;;;;;;32.29;64.84;100568.66;5123602;27;70721;-45
2023/06/01 04:14:35;;;;;;;;;;;;;;;32.09;65.34;100589.88;5107981;27;66018;-44
2023/06/01 04:17:06;;;;;;;4.32;4.00;;;;;;;32.37;64.94;100576.41;5113857;27;70158;-44
2023/06/01 04:19:39;;;;;;;4.80;3.88;;;;;;;32.41;64.76;100572.19;5112536;27;66225;-44
2023/06/01 04:22:12;;;;;;;4.68;3.40;;;;;;;32.44;64.56;100565.44;5118123;27;69078;-43
2023/06/01 04:24:42;;;;;;;3.63;3.33;;;;;;;32.44;64.73;100560.84;5109708;27;66370;-43
2023/06/01 04:27:15;;;;;;;4.07;3.67;;;;;;;32.48;64.65;100561.22;5113638;27;70166;-43
2023/06/01 04:29:48;;;;;;;5.70;3.55;;;;;;;32.37;64.42;100532.97;5108779;27;65962;-44
2023/06/01 04:32:21;;;;;;;3.65;3.35;;;;;;;32.54;64.61;100559.44;5113402;27;70007;-42
2023/06/01 04:34:53;;;;;;;4.00;3.70;;;;;;;32.45;64.45;100543.47;5110663;27;66415;-44
2023/06/01 04:37:24;;;;;;;4.82;3.30;;;;;;;32.39;64.52;100513.75;5106323;27;70614;-43
2023/06/01 04:39:56;;;;;;;4.30;3.35;;;;;;;32.57;64.19;100542.66;5111517;27;65746;-44
2023/06/01 04:42:27;;;;;;;3.47;3.17;;;;;;;32.55;64.32;100529.34;5104791;27;70831;-45
2023/06/01 04:44:58;;;;;;;3.35;3.05;;;;;;;32.49;64.30;100514.81;5112713;27;66347;-43
2023/06/01 04:47:29;;;;;;;6.20;3.20;;;;;;;32.49;64.10;100514.81;5103613;27;70960;-44
2023/06/01 04:50:00;;;;;;;3.55;3.25;;;;;;;32.63;64.18;100531.69;5096330;27;66344;-44
2023/06/01 04:52:31;;;;;;;3.50;3.20;;;;;;;32.59;64.71;100518.81;5106645;27;70390;-44
2023/06/01 04:55:04;;;;;;;3.45;3.17;;;;;;;32.70;63.95;100515.22;5100817;27;66494;-45
2023/06/01 04:57:36;;;;;;;5.00;3.88;;;;;;;32.73;64.14;100525.59;5107119;27;71420;-45
2023/06/01 05:00:12;;;;;;;;;;;;;;;32.44;64.47;100509.25;5112404;27;67186;-44
2023/06/01 05:02:44;;;;;;;3.33;3.08;;;;;;;32.64;63.78;100492.56;5104534;27;70001;-45
2023/06/01 05:05:16;;;;;;;3.75;3.45;;;;;;;32.39;63.65;100433.13;5116552;27;66277;-46
2023/06/01 05:07:48;;;;;;;4.32;3.47;;;;;;;32.58;63.66;100457.44;5111921;27;69514;-44
2023/06/01 05:10:18;;;;;;;3.65;3.35;;;;;;;32.83;63.66;100486.97;5104050;27;66557;-43
2023/06/01 05:12:49;;;;;;;5.00;3.17;;;;;;;32.70;63.60;100466.34;5108169;27;70596;-45
2023/06/01 05:15:21;;;;;;;3.25;3.05;;;;;;;32.84;63.66;100478.56;5109983;27;65409;-44
2023/06/01 05:17:52;;;;;;;3.97;3.58;;;;;;;32.84;63.61;100464.97;5109272;27;69122;-43
2023/06/01 05:20:23;;;;;;;3.00;2.80;;;;;;;32.89;63.68;100456.91;5112493;27;65702;-44
2023/06/01 05:22:57;;;;;;;3.63;3.33;;;;;;;32.92;63.47;100453.72;5117136;27;70453;-44
2023/06/01 05:25:29;;;;;;;3.53;3.22;;;;;;;32.94;63.40;100446.16;5112732;27;66300;-44
2023/06/01 05:27:59;;;;;;;3.00;2.80;;;;;;;32.91;63.35;100424.91;5117830;27;70408;-44
2023/06/01 05:30:31;;;;;;;;;;;;;;;32.68;64.07;100425.88;5106432;27;65773;-43
2023/06/01 05:33:04;;;;;;;3.15;2.92;;;;;;;32.71;63.61;100386.53;5106584;27;69977;-44
2023/06/01 05:35:35;;;;;;;6.10;3.35;;;;;;;33.02;63.28;100422.41;5110806;27;66206;-45
2023/06/01 05:38:08;;;;;;;4.03;3.35;;;;;;;33.00;63.26;100421.81;5116441;27;69822;-45
2023/06/01 05:40:39;;;;;;;3.20;2.90;;;;;;;33.05;63.51;100425.44;5109533;27;66011;-44
2023/06/01 05:43:10;;;;;;;3.03;2.72;;;;;;;33.03;63.21;100415.91;5115221;27;70178;-44
2023/06/01 05:45:40;;;;;;;3.60;3.08;;;;;;;33.09;63.30;100415.72;5119815;27;65742;-45
2023/06/01 05:48:13;;;;;;;2.90;2.70;;;;;;;33.14;63.23;100406.84;5113952;27;69654;-45
2023/06/01 05:50:50;;;;;;;3.08;2.83;;;;;;;32.96;63.15;100374.44;5087099;27;66084;-45
2023/06/01 05:53:24;;;;;;;3.75;3.42;;;;;;;32.99;63.07;100379.38;5104320;27;69995;-44
2023/06/01 05:55:55;;;;;;;4.13;3.10;;;;;;;33.21;62.94;100407.50;5106162;27;65935;-46
2023/06/01 05:58:25;;;;;;;3.20;2.90;;;;;;;33.21;62.85;100395.78;5108605;27;70322;-45
2023/06/01 06:00:56;;;;;;;3.60;3.30;;;;;;;33.15;62.87;100386.72;5112705;27;66040;-45
2023/06/01 06:03:28;;;;;;;3.70;3.35;;;;;;;33.27;62.76;100390.19;5107682;27;69921;-44
2023/06/01 06:06:00;;;;;;;3.10;2.90;;;;;;;33.31;62.60;100404.13;5104671;27;66930;-43
2023/06/01 06:08:31;;;;;;;3.22;2.85;;;;;;;33.23;62.76;100374.63;5108256;27;69980;-44
2023/06/01 06:11:02;;;;;;;3.90;3.60;;;;;;;33.33;62.46;100372.91;5106942;27;67515;-45
2023/06/01 06:13:33;;;;;;;4.03;3.50;;;;;;;33.37;62.66;100365.88;5103509;27;71334;-44
2023/06/01 06:16:04;;;;;;;3.78;3.33;;;;;;;33.35;62.83;100351.72;5113398;27;65774;-44
2023/06/01 06:18:34;;;;;;;3.50;3.20;;;;;;;33.41;62.86;100346.38;5108580;27;70172;-44
2023/06/01 06:21:06;;;;;;;4.68;3.20;;;;;;;33.27;62.53;100311.38;5111166;27;66904;-44
2023/06/01 06:23:39;;;;;;;3.90;3.60;;;;;;;33.48;62.40;100352.44;5109844;27;70372;-44
2023/06/01 06:26:10;;;;;;;4.07;3.67;;;;;;;33.52;62.03;100334.56;5104510;27;66409;-44
2023/06/01 06:28:41;;;;;;;3.55;3.25;;;;;;;33.44;62.40;100322.22;5111476;27;70004;-44
2023/06/01 06:31:11;;;;;;;7.63;3.67;;;;;;;33.57;62.09;100334.63;5108671;27;66827;-44
2023/06/01 06:33:42;;;;;;;3.72;3.42;;;;;;;33.49;62.11;100324.16;5104960;27;69091;-44
2023/06/01 06:36:13;;;;;;;3.95;3.55;;;;;;;33.51;62.21;100317.38;5110737;27;66716;-46
2023/06/01 06:38:44;;;;;;;3.58;3.28;;;;;;;33.26;61.82;100277.09;5107243;27;70260;-45
2023/06/01 06:41:14;;;;;;;3.55;3.25;;;;;;;33.48;62.07;100311.66;5092727;27;65965;-46
2023/06/01 06:43:45;;;;;;;3.72;3.20;;;;;;;33.67;61.84;100337.50;5099455;27;69925;-46
2023/06/01 06:46:15;;;;;;;3.63;3.17;;;;;;;33.69;61.99;100339.97;5110237;27;65829;-45
2023/06/01 06:48:46;;;;;;;5.45;3.70;;;;;;;33.73;61.79;100339.19;5108687;27;69676;-44
2023/06/01 06:51:17;;;;;;;3.78;3.47;;;;;;;33.53;61.92;100301.69;5113288;27;66480;-45
2023/06/01 06:53:47;;;;;;;4.45;4.05;;;;;;;33.77;62.06;100339.53;5110663;27;69944;-44
2023/06/01 06:56:18;;;;;;;5.13;3.75;;;;;;;33.75;62.00;100334.34;5109140;27;66505;-43
2023/06/01 06:58:49;;;;;;;3.25;3.05;;;;;;;33.86;62.02;100331.75;5113984;27;69820;-43
2023/06/01 07:01:37;;;;;;;3.72;3.47;;;;;;;33.81;62.01;100317.00;5109628;27;65922;-48
2023/06/01 07:04:10;;;;;;;3.97;3.67;;;;;;;33.92;61.64;100319.84;5104931;27;70539;-43
2023/06/01 07:06:41;;;;;;;6.65;3.53;;;;;;;33.81;61.29;100308.00;5110104;27;66222;-45
2023/06/01 07:09:12;;;;;;;;;;;;;;;33.69;62.05;100316.31;5110380;27;70378;-44
2023/06/01 07:11:43;;;;;;;3.95;3.60;;;;;;;33.93;61.61;100313.31;5106355;27;67012;-45
2023/06/01 07:14:14;;;;;;;4.60;3.47;;;;;;;33.85;61.39;100294.72;5108848;27;70527;-46
2023/06/01 07:16:45;;;;;;;4.82;3.92;;;;;;;33.81;61.41;100278.91;5108820;27;65173;-46
2023/06/01 07:19:17;;;;;;;3.63;3.35;;;;;;;34.08;61.39;100308.09;5112541;27;70428;-44
2023/06/01 07:21:47;;;;;;;5.30;4.30;;;;;;;34.08;61.23;100308.09;5109018;27;67859;-44
2023/06/01 07:24:19;;;;;;;4.10;3.70;;;;;;;34.09;60.79;100328.78;5104739;27;70474;-45
2023/06/01 07:26:51;;;;;;;4.10;3.80;;;;;;;34.02;61.40;100314.53;5114814;27;65781;-45
2023/06/01 07:29:22;;;;;;;4.18;3.88;;;;;;;34.13;60.84;100305.41;5116206;27;70418;-48
2023/06/01 07:31:53;;;;;;;4.15;3.83;;;;;;;34.14;60.81;100304.34;5111631;27;65411;-46
2023/06/01 07:34:24;;;;;;;;;;;;;;;33.89;61.36;100304.03;5114187;27;70561;-47
2023/06/01 07:36:58;;;;;;;4.40;4.00;;;;;;;34.10;61.08;100294.19;5113967;27;65502;-46
2023/06/01 07:39:44;;;;;;;4.03;3.72;;;;;;;34.20;60.43;100289.69;5120901;27;70467;-44
2023/06/01 07:42:27;;;;;;;4.38;4.07;;;;;;;34.11;60.45;100280.34;5119897;27;65083;-46
2023/06/01 07:45:17;;;;;;;4.10;3.80;;;;;;;34.16;60.64;100283.13;5110590;27;69702;-47
2023/06/01 07:47:48;;;;;;;4.20;3.80;;;;;;;34.00;60.21;100248.63;5109894;27;66218;-46
2023/06/01 07:50:19;;;;;;;4.15;3.85;;;;;;;34.12;60.37;100254.75;5114334;27;69213;-45
2023/06/01 07:52:52;;;;;;;3.95;3.65;;;;;;;34.28;60.39;100273.97;5108922;27;66125;-46
2023/06/01 07:55:23;;;;;;;4.47;4.18;;;;;;;34.17;60.45;100251.28;5105886;27;70146;-45
2023/06/01 07:57:53;;;;;;;6.03;4.38;;;;;;;34.23;60.40;100261.94;5112958;27;66179;-44
2023/06/01 08:00:25;;;;;;;3.88;3.58;;;;;;;34.08;60.35;100242.75;5112635;27;69354;-44
2023/06/01 08:02:59;;;;;;;4.80;4.28;;;;;;;34.31;60.47;100274.28;5107363;27;66154;-45
2023/06/01 08:05:29;;;;;;;10.35;4.35;;;;;;;34.34;60.37;100278.38;5107649;27;70276;-44
2023/06/01 08:08:00;;;;;;;5.10;4.60;;;;;;;34.24;59.82;100258.16;5112287;27;66611;-45
2023/06/01 08:10:31;;;;;;;5.47;4.17;;;;;;;34.34;60.07;100281.09;5111182;27;70500;-44
2023/06/01 08:13:02;;;;;;;5.17;4.33;;;;;;;34.35;59.89;100269.13;5108061;27;66425;-44
2023/06/01 08:15:36;;;;;;;4.45;4.05;;;;;;;34.28;59.88;100246.75;5111993;27;69956;-44
2023/06/01 08:18:08;;;;;;;4.57;3.95;;;;;;;34.36;59.93;100255.28;5106353;27;66674;-44
2023/06/01 08:20:45;;;;;;;6.50;4.15;;;;;;;34.23;60.06;100223.84;5118303;27;70204;-44
2023/06/01 08:23:22;;;;;;;4.18;3.78;;;;;;;34.23;59.97;100217.56;5107077;27;66641;-44
2023/06/01 08:25:53;;;;;;;4.38;3.97;;;;;;;34.22;59.60;100216.75;5102471;27;69658;-44
2023/06/01 08:28:23;;;;;;;6.78;4.13;;;;;;;34.25;60.00;100227.13;5102987;27;66275;-45
2023/06/01 08:30:53;;;;;;;4.53;4.13;;;;;;;34.42;59.75;100226.19;5111043;27;70446;-45
2023/06/01 08:33:25;;;;;;;6.03;4.03;;;;;;;34.42;59.82;100232.44;5111049;27;65452;-44
2023/06/01 08:35:56;;;;;;;4.53;4.20;;;;;;;34.18;59.58;100198.47;5112120;27;70123;-44
2023/06/01 08:38:32;;;;;;;4.32;3.92;;;;;;;34.44;60.10;100243.09;5112847;27;66638;-43
2023/06/01 08:41:11;;;;;;;4.38;4.07;;;;;;;33.80;60.08;100154.84;5109762;27;69993;-44
2023/06/01 08:43:43;;;;;;;5.25;4.53;;;;;;;34.48;60.08;100290.50;5110083;27;66630;-44
2023/06/01 08:46:16;;;;;;;5.13;4.60;;;;;;;33.68;60.15;100145.19;5108017;27;69399;-44
2023/06/01 08:48:52;;;;;;;5.38;4.60;;;;;;;33.75;59.66;100146.66;5106093;27;66568;-45
2023/06/01 08:51:24;;;;;;;6.07;4.43;;;;;;;34.37;60.21;100251.47;5112188;27;69423;-44
2023/06/01 08:53:56;;;;;;;;;;;;;;;34.21;60.26;100274.16;5108161;27;66692;-43
2023/06/01 08:56:27;;;;;;;;;;;;;;;34.18;60.76;100297.28;5108575;27;70343;-43
2023/06/01 08:59:00;;;;;;;6.82;4.40;;;;;;;33.16;59.47;100094.91;5104948;27;66944;-45
2023/06/01 09:01:32;;;;;;;5.95;5.35;;;;;;;34.50;60.30;100292.97;5108803;27;70744;-44
2023/06/01 09:04:02;;;;;;;;;;;;;;;34.22;60.61;100287.53;5110598;27;65722;-43
2023/06/01 09:06:33;;;;;;;7.97;4.85;;;;;;;34.48;60.19;100287.75;5106384;27;69842;-46
2023/06/01 09:09:04;;;;;;;7.47;4.20;;;;;;;34.50;59.63;100280.16;5107076;27;66649;-44
2023/06/01 09:11:35;;;;;;;4.80;4.40;;;;;;;34.47;59.92;100272.53;5112956;27;69317;-45
2023/06/01 09:14:44;;;;;;;5.00;4.60;;;;;;;34.37;59.58;100277.88;5107274;27;65446;-45
2023/06/01 09:17:33;;;;;;;5.30;4.80;;;;;;;34.36;59.88;100251.72;5058156;27;72043;-45
2023/06/01 09:20:05;;;;;;;6.03;5.20;;;;;;;34.50;59.14;100282.06;5109487;27;66489;-44
2023/06/01 09:22:43;;;;;;;5.50;5.00;;;;;;;34.51;58.97;100273.63;5110219;27;70744;-43
2023/06/01 09:25:15;;;;;;;9.93;5.38;;;;;;;34.28;59.46;100246.75;5111712;27;66632;-44
2023/06/01 09:27:50;;;;;;;8.63;5.88;;;;;;;34.52;58.81;100297.09;5107792;27;70562;-44
2023/06/01 09:30:26;;;;;;;6.38;5.55;;;;;;;34.53;58.95;100298.72;5099966;27;66732;-43
2023/06/01 09:33:14;;;;;;;6.18;5.38;;;;;;;34.43;59.26;100299.44;5111068;27;69530;-43
2023/06/01 09:35:47;;;;;;;6.40;5.80;;;;;;;33.70;59.22;100181.94;5111648;27;67050;-45
2023/06/01 09:38:26;;;;;;;8.85;5.80;;;;;;;33.85;58.62;100207.66;5115519;27;69725;-44
2023/06/01 09:41:02;;;;;;;7.50;6.80;;;;;;;33.85;59.14;100208.50;5117076;27;66526;-44
2023/06/01 09:43:38;;;;;;;6.90;6.25;;;;;;;34.53;59.28;100330.56;5101706;27;69412;-44
2023/06/01 09:46:30;;;;;;;6.80;6.30;;;;;;;34.41;59.07;100333.47;5104387;27;66527;-44
2023/06/01 09:49:30;;;;;;;6.55;6.15;;;;;;;33.79;59.28;100218.50;5110538;27;69666;-44
2023/06/01 09:52:03;;;;;;;7.07;6.40;;;;;;;34.51;58.89;100330.81;5109805;27;66056;-43
2023/06/01 09:54:43;;;;;;;8.07;7.25;;;;;;;34.45;59.10;100342.75;5107885;27;70798;-44
2023/06/01 09:57:25;;;;;;;8.18;6.82;;;;;;;34.47;58.97;100370.56;5104001;27;66472;-45
2023/06/01 09:59:56;;;;;;;;;;;;;;;34.19;59.66;100380.59;5114150;27;69136;-44
2023/06/01 10:02:27;;;;;;;11.70;6.63;;;;;;;34.39;59.67;100371.03;5106009;27;66762;-44
2023/06/01 10:05:25;;;;;;;7.78;7.13;;;;;;;34.48;59.69;100377.63;5098710;27;70102;-44
2023/06/01 10:08:03;;;;;;;11.13;7.78;;;;;;;33.89;59.15;100279.53;5101643;27;66742;-43
2023/06/01 10:10:33;;;;;;;;;;;;;;;34.18;60.33;100354.44;5105344;27;70632;-45
2023/06/01 10:13:04;;;;;;;9.63;8.18;;;;;;;34.28;60.20;100339.31;5106212;27;66690;-44
2023/06/01 10:15:35;;;;;;;10.43;9.15;;;;;;;34.20;61.40;100333.25;5099255;27;70025;-44
2023/06/01 10:18:07;;;;;;;15.13;9.27;;;;;;;34.11;62.67;100334.78;5101891;27;66287;-44
2023/06/01 10:20:39;;;;;;;14.15;10.02;;;;;;;34.04;63.09;100339.56;5102273;27;70286;-44
2023/06/01 10:23:10;;;;;;;11.77;9.38;;;;;;;34.01;63.32;100350.97;5102445;27;65906;-44
2023/06/01 10:26:05;;;;;;;9.93;9.05;;;;;;;33.75;63.80;100315.28;5096687;27;69517;-45
2023/06/01 10:28:38;;;;;;;10.27;9.07;;;;;;;33.92;64.18;100357.94;5107295;27;66383;-45
2023/06/01 10:31:36;;;;;;;13.82;9.75;;;;;;;33.82;64.42;100374.94;5109089;27;69446;-44
2023/06/01 10:34:09;;;;;;;12.27;9.63;;;;;;;33.84;65.12;100388.31;5107251;27;66296;-45
2023/06/01 10:36:52;;;;;;;10.23;9.20;;;;;;;33.83;64.84;100375.78;5102212;27;69968;-43
2023/06/01 10:39:25;;;;;;;15.85;9.93;;;;;;;33.83;65.28;100392.09;5105600;27;64110;-46
2023/06/01 10:41:58;;;;;;;12.45;10.18;;;;;;;33.84;65.57;100401.91;5104488;27;68340;-43
2023/06/01 10:44:41;;;;;;;18.45;10.65;;;;;;;33.76;65.78;100403.97;5104899;27;66525;-43
2023/06/01 10:47:51;;;;;;;15.52;11.98;;;;;;;33.72;66.07;100402.84;5101383;27;70117;-45
2023/06/01 10:50:22;;;;;;;15.50;14.02;;;;;;;33.74;65.83;100392.53;5104568;27;67017;-44
2023/06/01 10:52:54;;;;;;;19.77;17.63;;;;;;;33.74;65.60;100400.69;5106432;27;71735;-45
2023/06/01 10:55:28;;;;;;;27.67;19.77;;;;;;;33.78;65.99;100381.97;5112777;27;66008;-44
2023/06/01 10:58:20;;;;;;;26.33;21.50;;;;;;;33.70;66.94;100396.81;5110126;27;69431;-44
2023/06/01 11:00:51;;;;;;;;;;;;;;;33.53;67.79;100404.19;5104840;27;66524;-46
2023/06/01 11:03:47;;;;;;;32.22;25.77;;;;;;;33.66;67.31;100419.34;5103539;27;70242;-45
2023/06/01 11:06:33;;;;;;;30.70;27.40;;;;;;;33.61;67.64;100411.13;5107084;27;66512;-45
2023/06/01 11:09:10;;;;;;;32.95;28.33;;;;;;;33.71;67.21;100417.53;5105972;27;69680;-46
2023/06/01 11:11:55;;;;;;;34.80;28.88;;;;;;;33.68;67.29;100425.34;5103036;27;65436;-43
2023/06/01 11:14:31;;;;;;;32.58;28.88;;;;;;;33.69;67.54;100435.16;5109098;27;69600;-45
2023/06/01 11:17:28;;;;;;;36.75;30.23;;;;;;;33.62;68.18;100437.22;5113138;27;65107;-46
2023/06/01 11:20:04;;;;;;;35.58;31.65;;;;;;;32.33;67.76;100235.97;5114088;27;70635;-44
2023/06/01 11:22:37;;;;;;;43.25;34.13;;;;;;;33.28;68.36;100386.41;5105280;27;65381;-44
2023/06/01 11:25:08;;;;;;;45.53;34.30;;;;;;;33.61;67.80;100439.13;5107869;27;68898;-44
2023/06/01 11:27:42;;;;;;;;;;;;;;;33.50;68.44;100446.28;5107162;27;65892;-44
2023/06/01 11:30:19;;;;;;;44.70;37.30;;;;;;;33.63;68.01;100430.72;5114136;27;70222;-46
2023/06/01 11:32:54;;;;;;;43.92;37.17;;;;;;;33.01;68.05;100339.22;5109303;27;65984;-44
2023/06/01 11:35:26;;;;;;;42.67;38.15;;;;;;;33.65;68.41;100456.59;5106196;27;70447;-44
2023/06/01 11:37:57;;;;;;;47.95;39.58;;;;;;;33.53;68.31;100436.84;5107413;27;66643;-45
2023/06/01 11:40:29;;;;;;;47.17;38.00;;;;;;;33.35;68.44;100411.53;5107933;27;70254;-44
2023/06/01 11:43:06;;;;;;;47.42;40.08;;;;;;;33.63;68.56;100464.19;5108020;27;65693;-43
2023/06/01 11:45:37;;;;;;;44.67;38.73;;;;;;;33.53;68.81;100425.97;5114142;27;70732;-46
2023/06/01 11:48:11;;;;;;;45.72;38.58;;;;;;;33.65;69.18;100447.59;5111837;27;66019;-45
2023/06/01 11:50:46;;;;;;;52.22;36.17;;;;;;;33.63;69.44;100466.91;5107103;27;69670;-45
2023/06/01 11:53:18;;;;;;;43.47;34.30;;;;;;;33.61;69.33;100466.34;5111988;27;66277;-46
2023/06/01 11:55:50;;;;;;;36.63;32.15;;;;;;;33.59;69.48;100473.91;5104413;27;69719;-45
2023/06/01 11:58:27;;;;;;;35.05;28.08;;;;;;;33.54;68.95;100465.66;5105055;27;66275;-43
2023/06/01 12:00:59;;;;;;;42.67;26.35;;;;;;;33.55;69.16;100480.94;5111483;27;70028;-44